createdAt,value
2019-06-10T00:04:43.153Z,99004.14
2019-06-10T00:09:51.162Z,99003.83
2019-06-10T00:15:01.286Z,99001.31
2019-06-10T00:20:11.189Z,98999.23
2019-06-10T00:25:20.860Z,98994.38
2019-06-10T00:30:27.675Z,98993.02
2019-06-10T00:35:35.148Z,98991.39
2019-06-10T00:40:42.544Z,98974.25
2019-06-10T00:45:51.382Z,98981.99
2019-06-10T00:51:00.997Z,98976.77
2019-06-10T00:56:08.826Z,98967.33
2019-06-10T01:01:21.876Z,98966.11
2019-06-10T01:06:28.632Z,98961.42
2019-06-10T01:11:36.086Z,98957.31
2019-06-10T01:16:43.506Z,98953.76
2019-06-10T01:21:51.366Z,98933.67
2019-06-10T01:27:01.260Z,98932.66
2019-06-10T01:32:09.755Z,98929.08
2019-06-10T01:37:17.847Z,98919.09
2019-06-10T01:42:25.267Z,98929.25
2019-06-10T01:47:32.718Z,98909.58
2019-06-10T01:52:41.094Z,98914.00
2019-06-10T01:57:48.800Z,98903.45
2019-06-10T02:02:56.254Z,98900.25
2019-06-10T02:08:03.687Z,98899.98
2019-06-10T02:13:31.969Z,98895.03
2019-06-10T02:18:38.284Z,98879.90
2019-06-10T02:23:45.610Z,98867.78
2019-06-10T02:28:53.210Z,98872.52
2019-06-10T02:34:02.553Z,98864.23
2019-06-10T02:39:13.359Z,98853.97
2019-06-10T02:44:29.159Z,98860.52
2019-06-10T02:49:51.643Z,98856.69
2019-06-10T02:54:37.986Z,98861.27
2019-06-10T02:59:46.759Z,98859.01
2019-06-10T03:04:54.216Z,98849.75
2019-06-10T03:10:04.683Z,98833.89
2019-06-10T03:15:12.589Z,98835.25
2019-06-10T03:20:20.028Z,98824.89
2019-06-10T03:25:27.738Z,98827.15
2019-06-10T03:30:46.682Z,98829.20
2019-06-10T03:35:44.309Z,98821.59
2019-06-10T03:40:52.477Z,98822.91
2019-06-10T03:46:02.663Z,98822.34
2019-06-10T03:51:09.047Z,98820.02
2019-06-10T03:56:17.169Z,98825.62
2019-06-10T04:01:26.992Z,98835.91
2019-06-10T04:06:33.895Z,98825.16
2019-06-10T04:11:43.186Z,98823.00
2019-06-10T04:16:52.542Z,98816.22
2019-06-10T04:22:02.602Z,98810.33
2019-06-10T04:27:12.129Z,98813.36
2019-06-10T04:32:20.073Z,98805.07
2019-06-10T04:37:29.351Z,98797.50
2019-06-10T04:42:37.079Z,98798.62
2019-06-10T04:47:44.558Z,98792.59
2019-06-10T04:52:52.904Z,98788.78
2019-06-10T04:58:02.528Z,98797.44
2019-06-10T05:03:12.108Z,98790.22
2019-06-10T05:08:19.321Z,98801.59
2019-06-10T05:13:28.249Z,98811.78
2019-06-10T05:18:36.084Z,98814.59
2019-06-10T05:23:43.929Z,98808.28
2019-06-10T05:28:52.395Z,98799.21
2019-06-10T05:34:02.378Z,98795.29
2019-06-10T05:39:12.153Z,98782.13
2019-06-10T05:44:19.391Z,98781.81
2019-06-10T05:49:27.794Z,98781.85
2019-06-10T05:54:35.892Z,98770.05
2019-06-10T05:59:43.376Z,98777.14
2019-06-10T06:04:52.938Z,98769.34
2019-06-10T06:10:02.518Z,98769.22
2019-06-10T06:15:12.477Z,98766.70
2019-06-10T06:20:19.943Z,98760.64
2019-06-10T06:25:28.122Z,98766.15
2019-06-10T06:30:37.629Z,98759.73
2019-06-10T06:35:46.546Z,98766.28
2019-06-10T06:40:54.269Z,98759.08
2019-06-10T06:46:02.462Z,98762.12
2019-06-10T06:51:12.725Z,98761.50
2019-06-10T06:56:19.312Z,98755.44
2019-06-10T07:01:26.881Z,98742.13
2019-06-10T07:06:36.041Z,98733.25
2019-06-10T07:11:46.974Z,98744.23
2019-06-10T07:16:55.325Z,98735.50
2019-06-10T07:22:12.294Z,98725.69
2019-06-10T07:27:13.110Z,98725.20
2019-06-10T07:32:22.687Z,98728.33
2019-06-10T07:37:32.746Z,98729.36
2019-06-10T07:42:43.643Z,98731.29
2019-06-10T07:47:49.390Z,98734.44
2019-06-10T07:52:56.802Z,98734.67
2019-06-10T07:58:04.258Z,98732.06
2019-06-10T08:03:12.889Z,98731.31
2019-06-10T08:08:20.486Z,98723.46
2019-06-10T08:13:27.993Z,98726.14
2019-06-10T08:18:44.446Z,98726.09
2019-06-10T08:23:46.886Z,98721.44
2019-06-10T08:28:53.827Z,98719.48
2019-06-10T08:34:03.072Z,98720.84
2019-06-10T08:39:15.088Z,98719.43
2019-06-10T08:44:19.863Z,98716.05
2019-06-10T08:49:27.374Z,98705.02
2019-06-10T08:54:34.906Z,98711.80
2019-06-10T08:59:44.772Z,98721.45
2019-06-10T09:04:53.648Z,98725.73
2019-06-10T09:10:02.935Z,98733.94
2019-06-10T09:15:12.924Z,98745.38
2019-06-10T09:20:23.009Z,98745.61
2019-06-10T09:25:33.395Z,98744.70
2019-06-10T09:30:44.211Z,98752.73
2019-06-10T09:35:52.014Z,98764.41
2019-06-10T09:41:01.719Z,98755.73
2019-06-10T09:46:08.989Z,98753.98
2019-06-10T09:51:16.736Z,98782.52
2019-06-10T09:56:24.196Z,98788.32
2019-06-10T10:01:32.657Z,98758.73
2019-06-10T10:06:42.105Z,98770.50
2019-06-10T10:11:51.468Z,98789.86
2019-06-10T10:17:00.745Z,98783.45
2019-06-10T10:22:11.062Z,98775.53
2019-06-10T10:27:17.742Z,98754.07
2019-06-10T10:32:25.359Z,98744.06
2019-06-10T10:37:32.930Z,98747.81
2019-06-10T10:42:45.977Z,98748.48
2019-06-10T10:47:51.847Z,98745.76
2019-06-10T10:52:59.020Z,98735.56
2019-06-10T10:58:06.800Z,98738.36
2019-06-10T11:03:14.844Z,98732.38
2019-06-10T11:08:22.951Z,98736.27
2019-06-10T11:13:34.535Z,98733.78
2019-06-10T11:18:42.386Z,98728.44
2019-06-10T11:23:50.209Z,98713.85
2019-06-10T11:28:58.020Z,98697.12
2019-06-10T11:34:05.777Z,98683.47
2019-06-10T11:39:13.506Z,98665.97
2019-06-10T11:44:22.477Z,98661.56
2019-06-10T11:49:31.207Z,98656.59
2019-06-10T11:54:53.734Z,98656.33
2019-06-10T11:59:48.070Z,98641.85
2019-06-10T12:04:57.565Z,98639.11
2019-06-10T12:10:05.181Z,98626.48
2019-06-10T12:15:13.584Z,98614.11
2019-06-10T12:20:22.827Z,98600.66
2019-06-10T12:25:36.833Z,98598.28
2019-06-10T12:30:42.180Z,98602.58
2019-06-10T12:35:48.925Z,98599.40
2019-06-10T12:40:58.946Z,98581.85
2019-06-10T12:46:05.750Z,98566.13
2019-06-10T12:51:13.795Z,98568.09
2019-06-10T12:56:22.773Z,98562.99
2019-06-10T13:01:32.809Z,98565.70
2019-06-10T13:06:41.628Z,98565.25
2019-06-10T13:11:52.618Z,98566.14
2019-06-10T13:17:00.574Z,98564.09
2019-06-10T13:22:08.913Z,98567.01
2019-06-10T13:27:16.445Z,98553.52
2019-06-10T13:32:23.991Z,98550.63
2019-06-10T13:37:32.178Z,98543.09
2019-06-10T13:42:42.226Z,98521.98
2019-06-10T13:47:48.818Z,98521.23
2019-06-10T13:52:56.414Z,98512.16
2019-06-10T13:58:06.259Z,98508.55
2019-06-10T14:03:16.124Z,98517.38
2019-06-10T14:08:23.301Z,98516.08
2019-06-10T14:13:32.677Z,98508.55
2019-06-10T14:18:41.902Z,98504.48
2019-06-10T14:23:49.176Z,98498.60
2019-06-10T14:28:56.624Z,98499.02
2019-06-10T14:34:06.107Z,98498.47
2019-06-10T14:39:14.683Z,98491.50
2019-06-10T14:44:23.477Z,98482.44
2019-06-10T14:49:33.012Z,98477.05
2019-06-10T14:54:42.684Z,98468.37
2019-06-10T14:59:49.214Z,98466.04
2019-06-10T15:04:56.657Z,98454.20
2019-06-10T15:10:04.187Z,98456.66
2019-06-10T15:15:12.269Z,98444.77
2019-06-10T15:20:22.547Z,98440.92
2019-06-10T15:25:29.137Z,98435.86
2019-06-10T15:30:36.495Z,98423.72
2019-06-10T15:35:43.757Z,98417.55
2019-06-10T15:40:53.197Z,98406.75
2019-06-10T15:46:00.240Z,98406.23
2019-06-10T15:51:07.690Z,98405.31
2019-06-10T15:56:27.015Z,98394.67
2019-06-10T16:01:26.856Z,98393.30
2019-06-10T16:06:34.348Z,98379.66
2019-06-10T16:11:43.641Z,98380.30
2019-06-10T16:16:52.568Z,98367.27
2019-06-10T16:22:00.176Z,98361.51
2019-06-10T16:27:07.545Z,98368.97
2019-06-10T16:32:16.294Z,98363.91
2019-06-10T16:37:25.346Z,98384.76
2019-06-10T16:42:32.839Z,98367.70
2019-06-10T16:47:42.880Z,98357.67
2019-06-10T16:52:49.557Z,98352.86
2019-06-10T16:57:59.691Z,98358.91
2019-06-10T17:03:06.888Z,98364.85
2019-06-10T17:08:14.289Z,98370.12
2019-06-10T17:13:27.202Z,98378.47
2019-06-10T17:18:35.537Z,98380.27
2019-06-10T17:23:43.412Z,98393.03
2019-06-10T17:28:52.145Z,98394.77
2019-06-10T17:34:02.518Z,98399.00
2019-06-10T17:39:12.355Z,98377.95
2019-06-10T17:44:24.367Z,98373.52
2019-06-10T17:49:34.690Z,98366.69
2019-06-10T17:54:41.935Z,98357.27
2019-06-10T17:59:49.386Z,98358.39
2019-06-10T18:04:56.856Z,98372.97
2019-06-10T18:10:04.422Z,98385.35
2019-06-10T18:15:12.706Z,98379.91
2019-06-10T18:20:22.336Z,98366.47
2019-06-10T18:25:30.456Z,98358.78
2019-06-10T18:30:38.087Z,98377.67
2019-06-10T18:35:45.457Z,98382.58
2019-06-10T18:40:53.548Z,98383.42
2019-06-10T18:46:03.507Z,98356.58
2019-06-10T18:51:12.518Z,98351.62
2019-06-10T18:56:19.362Z,98336.55
2019-06-10T19:01:28.105Z,98334.59
2019-06-10T19:06:37.093Z,98322.52
2019-06-10T19:11:44.763Z,98337.56
2019-06-10T19:16:52.563Z,98334.52
2019-06-10T19:22:06.161Z,98336.44
2019-06-10T19:27:09.344Z,98316.58
2019-06-10T19:32:18.506Z,98340.08
2019-06-10T19:37:40.503Z,98347.45
2019-06-10T19:42:49.338Z,98307.58
2019-06-10T19:48:16.344Z,98286.78
2019-06-10T19:53:37.292Z,98261.89
2019-06-10T19:58:48.510Z,98292.48
2019-06-10T20:03:55.940Z,98308.75
2019-06-10T20:09:06.343Z,98325.97
2019-06-10T20:14:14.194Z,98338.30
2019-06-10T20:19:22.483Z,98444.31
2019-06-10T20:24:30.115Z,98514.90
2019-06-10T20:29:37.885Z,98441.98
2019-06-10T20:34:45.641Z,98468.59
2019-06-10T20:39:55.193Z,98455.34
2019-06-10T20:45:04.989Z,98478.25
2019-06-10T20:50:13.091Z,98420.09
2019-06-10T20:55:23.154Z,98327.88
2019-06-10T21:00:41.994Z,98314.42
2019-06-10T21:05:53.312Z,98369.52
2019-06-10T21:11:02.658Z,98313.28
2019-06-10T21:16:09.359Z,98340.75
2019-06-10T21:21:16.783Z,98349.94
2019-06-10T21:26:24.265Z,98383.16
2019-06-10T21:31:32.614Z,98421.05
2019-06-10T21:36:41.235Z,98480.77
2019-06-10T21:41:49.858Z,98445.94
2019-06-10T21:46:57.388Z,98386.88
2019-06-10T21:52:04.913Z,98373.51
2019-06-10T21:57:12.338Z,98398.12
2019-06-10T22:02:19.781Z,98396.15
2019-06-10T22:07:27.242Z,98404.39
2019-06-10T22:12:34.639Z,98388.43
2019-06-10T22:17:42.546Z,98353.24
2019-06-10T22:22:53.643Z,98411.21
2019-06-10T22:28:02.704Z,98439.28
2019-06-10T22:33:12.195Z,98457.91
2019-06-10T22:38:18.955Z,98457.61
2019-06-10T22:43:26.375Z,98481.38
2019-06-10T22:48:33.772Z,98435.47
2019-06-10T22:53:42.526Z,98394.41
2019-06-10T22:58:53.946Z,98311.10
2019-06-10T23:04:01.048Z,98342.79
2019-06-10T23:09:09.376Z,98345.13
2019-06-10T23:14:16.740Z,98411.81
2019-06-10T23:19:27.104Z,98393.45
2019-06-10T23:24:33.225Z,98398.03
2019-06-10T23:29:42.618Z,98386.83
2019-06-10T23:34:49.538Z,98382.61
2019-06-10T23:39:56.928Z,98365.39
2019-06-10T23:45:05.206Z,98357.11
2019-06-10T23:50:13.097Z,98360.13
2019-06-10T23:55:22.686Z,98349.30
